Time;durP1;ratioP1;P1;durP2;ratioP2;P2;SDS_P1;SDS_P2;PMS_P1;PMS_P2;Temp;Humidity;BMP_temperature;BMP_pressure;BME280_temperature;BME280_humidity;BME280_pressure;Samples;Min_cycle;Max_cycle;Signal;HPM_P1;HPM_P2
2021/12/10 00:01:39;;;;;;;2.40;0.60;;;1.70;99.90;;;;;;4973767;28;20562;-85
2021/12/10 00:04:07;;;;;;;3.60;0.63;;;1.60;99.90;;;;;;4961709;28;20027;-85
2021/12/10 00:06:45;;;;;;;4.17;0.60;;;1.60;99.90;;;;;;4976197;28;20027;-85
2021/12/10 00:09:17;;;;;;;2.37;0.70;;;1.60;99.90;;;;;;4976165;28;20065;-85
2021/12/10 00:11:50;;;;;;;3.40;0.68;;;1.60;99.90;;;;;;4981971;28;20092;-86
2021/12/10 00:14:18;;;;;;;6.47;0.63;;;1.50;99.90;;;;;;4961239;28;20026;-85
2021/12/10 00:16:44;;;;;;;3.87;0.90;;;1.50;99.90;;;;;;4961996;28;20109;-86
2021/12/10 00:19:54;;;;;;;1.87;0.50;;;1.40;99.90;;;;;;4980283;28;20026;-85
2021/12/10 00:22:05;;;;;;;1.83;0.70;;;1.50;99.90;;;;;;4966806;28;20689;-86
2021/12/10 00:24:31;;;;;;;2.63;0.65;;;1.50;99.90;;;;;;4957691;28;20058;-84
2021/12/10 00:26:59;;;;;;;5.27;0.90;;;1.40;99.90;;;;;;4978928;28;20030;-84
2021/12/10 00:29:25;;;;;;;2.10;0.97;;;1.40;99.90;;;;;;4973286;28;20097;-84
2021/12/10 00:32:02;;;;;;;2.27;0.47;;;1.30;99.90;;;;;;4981373;28;20140;-84
2021/12/10 00:34:40;;;;;;;3.90;0.60;;;1.30;99.90;;;;;;4977631;28;20114;-84
2021/12/10 00:37:14;;;;;;;2.30;0.60;;;1.30;99.90;;;;;;4980259;28;20029;-84
2021/12/10 00:39:51;;;;;;;5.37;0.93;;;1.30;99.90;;;;;;4978564;28;20094;-84
2021/12/10 00:42:23;;;;;;;2.80;0.50;;;1.20;99.90;;;;;;4962399;28;20035;-84
2021/12/10 00:44:49;;;;;;;2.40;0.47;;;1.20;99.90;;;;;;4962939;28;20022;-84
2021/12/10 00:47:14;;;;;;;5.90;0.93;;;1.20;99.90;;;;;;4981312;28;20078;-84
2021/12/10 00:49:41;;;;;;;3.33;0.57;;;1.10;99.90;;;;;;4978599;28;20027;-84
2021/12/10 00:52:08;;;;;;;3.13;0.67;;;1.10;99.90;;;;;;4963628;28;20078;-84
2021/12/10 00:54:35;;;;;;;4.20;0.37;;;1.10;99.90;;;;;;4981862;28;20058;-84
2021/12/10 00:57:01;;;;;;;2.67;0.40;;;1.00;99.90;;;;;;4959602;28;20542;-84
2021/12/10 00:59:27;;;;;;;3.00;0.77;;;1.00;99.90;;;;;;4964710;28;20122;-84
2021/12/10 01:01:53;;;;;;;3.57;0.40;;;1.00;99.90;;;;;;4978258;28;20093;-84
2021/12/10 01:04:41;;;;;;;2.13;0.60;;;0.90;99.90;;;;;;4978785;28;20023;-83
2021/12/10 01:07:13;;;;;;;0.70;0.27;;;0.90;99.90;;;;;;4963520;28;20062;-84
2021/12/10 01:09:42;;;;;;;2.95;0.47;;;0.90;99.90;;;;;;4958074;28;20037;-84
2021/12/10 01:12:12;;;;;;;2.53;0.73;;;0.80;99.90;;;;;;4960816;28;20023;-84
2021/12/10 01:15:01;;;;;;;3.23;0.60;;;0.80;99.90;;;;;;4980006;28;20030;-83
2021/12/10 01:26:51;;;;;;;2.47;0.43;;;0.80;99.90;;;;;;4978774;28;20078;-83
2021/12/10 01:28:44;;;;;;;1.40;0.40;;;0.70;99.90;;;;;;4967649;28;20035;-83
2021/12/10 01:31:10;;;;;;;1.87;0.50;;;0.70;99.90;;;;;;4979682;28;20114;-82
2021/12/10 01:33:36;;;;;;;2.13;0.57;;;0.70;99.90;;;;;;4979422;28;20022;-83
2021/12/10 01:36:07;;;;;;;1.73;0.50;;;0.70;99.90;;;;;;4978460;28;20335;-83
2021/12/10 01:38:34;;;;;;;3.30;0.57;;;0.70;99.90;;;;;;4977018;28;20049;-83
2021/12/10 01:41:01;;;;;;;1.30;0.30;;;0.70;99.90;;;;;;4959044;28;20023;-83
2021/12/10 01:43:32;;;;;;;3.30;0.50;;;0.70;99.90;;;;;;4964059;28;20054;-83
2021/12/10 01:46:06;;;;;;;5.07;0.43;;;0.70;99.90;;;;;;4979781;28;20015;-83
2021/12/10 01:48:45;;;;;;;1.40;0.30;;;0.70;99.90;;;;;;4974467;28;20079;-83
2021/12/10 01:51:15;;;;;;;5.23;0.53;;;0.70;99.90;;;;;;4978458;28;20088;-83
2021/12/10 01:53:43;;;;;;;3.90;0.53;;;0.70;99.90;;;;;;4961941;28;20535;-83
2021/12/10 01:56:14;;;;;;;5.10;0.63;;;0.70;99.90;;;;;;4979672;28;20038;-83
2021/12/10 01:58:40;;;;;;;1.93;0.43;;;0.70;99.90;;;;;;4963837;28;20034;-83
2021/12/10 02:01:11;;;;;;;5.20;0.57;;;0.70;99.90;;;;;;4977213;28;20038;-83
2021/12/10 02:03:37;;;;;;;3.40;0.40;;;0.70;99.90;;;;;;4958742;28;20043;-83
2021/12/10 02:06:06;;;;;;;4.00;0.47;;;0.60;99.90;;;;;;4976610;28;20054;-83
2021/12/10 02:08:31;;;;;;;2.10;0.50;;;0.60;99.90;;;;;;4961549;28;20750;-83
2021/12/10 02:10:59;;;;;;;2.30;0.50;;;0.60;99.90;;;;;;4958479;28;20027;-83
2021/12/10 02:13:25;;;;;;;2.87;0.30;;;0.60;99.90;;;;;;4977354;28;20034;-83
2021/12/10 02:15:51;;;;;;;2.87;0.40;;;0.50;99.90;;;;;;4976787;28;20105;-83
2021/12/10 02:18:17;;;;;;;4.30;0.40;;;0.50;99.90;;;;;;4959144;28;20038;-82
2021/12/10 02:21:13;;;;;;;4.10;0.60;;;0.50;99.90;;;;;;4958967;28;20035;-83
2021/12/10 02:23:43;;;;;;;1.90;0.40;;;0.50;99.90;;;;;;4965808;28;20058;-82
2021/12/10 02:26:12;;;;;;;3.43;0.50;;;0.50;99.90;;;;;;4975470;28;20047;-82
2021/12/10 02:28:38;;;;;;;4.10;0.60;;;0.40;99.90;;;;;;4976250;28;20035;-83
2021/12/10 02:31:05;;;;;;;2.13;0.53;;;0.40;99.90;;;;;;4973642;28;20027;-82
2021/12/10 02:33:31;;;;;;;3.00;0.23;;;0.50;99.90;;;;;;4964378;28;20031;-83
2021/12/10 02:35:57;;;;;;;2.57;0.50;;;0.40;99.90;;;;;;4967950;28;20411;-83
2021/12/10 02:38:23;;;;;;;3.57;0.90;;;0.40;99.90;;;;;;4974631;28;20041;-83
2021/12/10 02:40:51;;;;;;;1.03;0.37;;;0.40;99.90;;;;;;4966327;28;20030;-83
2021/12/10 02:43:19;;;;;;;1.67;0.43;;;0.40;99.90;;;;;;4983388;28;20553;-83
2021/12/10 02:45:47;;;;;;;2.83;0.60;;;0.40;99.90;;;;;;4982425;28;20099;-83
2021/12/10 02:48:13;;;;;;;2.30;0.37;;;0.40;99.90;;;;;;4982503;28;20038;-83
2021/12/10 02:50:39;;;;;;;1.30;0.40;;;0.30;99.90;;;;;;4963942;28;20419;-83
2021/12/10 02:53:07;;;;;;;2.37;0.57;;;0.40;99.90;;;;;;4962994;28;20151;-83
2021/12/10 02:55:34;;;;;;;0.87;0.33;;;0.30;99.90;;;;;;4962372;28;20023;-83
2021/12/10 02:58:05;;;;;;;2.07;0.70;;;0.40;99.90;;;;;;4980498;28;20046;-83
2021/12/10 03:00:35;;;;;;;1.83;0.40;;;0.30;99.90;;;;;;4980824;28;20059;-83
2021/12/10 03:03:01;;;;;;;5.17;0.90;;;0.30;99.90;;;;;;4961775;28;20140;-83
2021/12/10 03:05:28;;;;;;;3.93;0.50;;;0.30;99.90;;;;;;4960990;28;20636;-83
2021/12/10 03:07:55;;;;;;;4.33;0.60;;;0.30;99.90;;;;;;4978816;28;20027;-83
2021/12/10 03:10:24;;;;;;;1.60;0.50;;;0.30;99.90;;;;;;4978338;28;20035;-83
2021/12/10 03:12:50;;;;;;;1.80;0.40;;;0.30;99.90;;;;;;4955356;28;20126;-83
2021/12/10 03:15:17;;;;;;;2.47;0.47;;;0.30;99.90;;;;;;4977843;28;20046;-83
2021/12/10 03:17:44;;;;;;;5.10;0.60;;;0.20;99.90;;;;;;4961396;28;20023;-83
2021/12/10 03:20:13;;;;;;;2.90;0.73;;;0.30;99.90;;;;;;4978009;28;20030;-83
2021/12/10 03:22:39;;;;;;;3.07;0.70;;;0.20;99.90;;;;;;4979133;28;20069;-83
2021/12/10 03:25:10;;;;;;;8.50;0.90;;;0.20;99.90;;;;;;4978561;28;20590;-83
2021/12/10 03:27:36;;;;;;;2.37;0.57;;;0.00;99.90;;;;;;4956546;28;20442;-83
2021/12/10 03:30:09;;;;;;;1.50;0.53;;;0.00;99.90;;;;;;4978666;28;20086;-83
2021/12/10 03:32:38;;;;;;;4.73;0.50;;;0.10;99.90;;;;;;4973105;28;20023;-83
2021/12/10 03:35:09;;;;;;;5.83;0.70;;;0.10;99.90;;;;;;4960321;28;20118;-83
2021/12/10 03:37:38;;;;;;;2.88;0.60;;;0.10;99.90;;;;;;4974791;28;20126;-82
2021/12/10 03:40:07;;;;;;;0.97;0.30;;;0.10;99.90;;;;;;4977449;28;20042;-83
2021/12/10 03:42:33;;;;;;;2.67;0.60;;;0.00;99.90;;;;;;4960073;28;20384;-83
2021/12/10 03:44:59;;;;;;;3.83;0.70;;;0.00;99.90;;;;;;4960631;28;20164;-83
2021/12/10 03:47:25;;;;;;;1.23;0.40;;;0.00;99.90;;;;;;4956350;28;20113;-83
2021/12/10 03:49:51;;;;;;;1.37;0.40;;;0.00;99.90;;;;;;4960510;28;20695;-83
2021/12/10 03:52:17;;;;;;;2.27;0.70;;;-0.10;99.90;;;;;;4955249;28;20031;-83
2021/12/10 03:54:43;;;;;;;4.07;0.80;;;-0.10;99.90;;;;;;4974200;28;20041;-83
2021/12/10 03:57:09;;;;;;;3.70;0.70;;;-0.10;99.90;;;;;;4961873;28;20527;-83
2021/12/10 03:59:36;;;;;;;7.60;0.83;;;-0.10;99.90;;;;;;4978424;28;20027;-83
2021/12/10 04:04:34;;;;;;;2.60;0.70;;;-0.10;99.90;;;;;;4951226;28;20498;-87
2021/12/10 04:07:06;;;;;;;3.03;1.03;;;-0.10;99.90;;;;;;4963622;28;20046;-87
2021/12/10 04:09:32;;;;;;;;;;;-0.10;99.90;;;;;;4943915;28;20488;-87
2021/12/10 04:11:59;;;;;;;1.83;0.57;;;-0.10;99.90;;;;;;4942699;28;19917;-87
2021/12/10 04:14:25;;;;;;;3.00;0.93;;;-0.10;99.90;;;;;;4958701;28;20141;-87
2021/12/10 04:16:56;;;;;;;2.17;0.80;;;-0.20;99.90;;;;;;4955232;28;20070;-87
2021/12/10 04:19:23;;;;;;;2.40;0.60;;;-0.20;99.90;;;;;;4955448;28;20097;-88
2021/12/10 04:21:52;;;;;;;2.33;0.70;;;-0.20;99.90;;;;;;4962572;28;20031;-88
2021/12/10 04:24:20;;;;;;;3.03;1.00;;;-0.20;99.90;;;;;;4961303;28;20042;-87
2021/12/10 04:26:47;;;;;;;4.83;0.90;;;-0.20;99.90;;;;;;4958434;28;20047;-87
2021/12/10 04:29:13;;;;;;;4.03;1.10;;;-0.20;99.90;;;;;;4954668;28;20141;-87
2021/12/10 04:31:39;;;;;;;5.00;1.13;;;-0.20;99.90;;;;;;4956669;28;20396;-88
2021/12/10 04:34:05;;;;;;;3.83;1.30;;;-0.20;99.90;;;;;;4959628;28;20461;-87
2021/12/10 04:36:31;;;;;;;4.47;1.07;;;-0.20;99.90;;;;;;4954236;28;20038;-87
2021/12/10 04:38:58;;;;;;;3.70;1.10;;;-0.20;99.90;;;;;;4956599;28;20557;-87
2021/12/10 04:41:24;;;;;;;3.90;1.23;;;-0.30;99.90;;;;;;4958056;28;20081;-87
2021/12/10 04:43:51;;;;;;;2.53;0.90;;;-0.30;99.90;;;;;;4954597;28;20024;-87
2021/12/10 04:46:17;;;;;;;2.07;0.90;;;-0.30;99.90;;;;;;4957776;28;20018;-87
2021/12/10 04:48:57;;;;;;;3.77;0.77;;;-0.30;99.90;;;;;;4957778;28;20568;-87
2021/12/10 04:51:29;;;;;;;5.90;1.10;;;-0.40;99.90;;;;;;4952703;28;20035;-87
2021/12/10 04:53:56;;;;;;;;;;;-0.40;99.90;;;;;;4955383;28;20027;-86
2021/12/10 04:56:23;;;;;;;2.30;0.90;;;-0.40;99.90;;;;;;4954919;28;20001;-87
2021/12/10 04:58:49;;;;;;;11.60;1.47;;;-0.40;99.90;;;;;;4956449;28;20043;-88
2021/12/10 05:01:15;;;;;;;9.23;1.53;;;-0.40;99.90;;;;;;4958644;28;20376;-87
2021/12/10 05:03:41;;;;;;;3.67;1.53;;;-0.40;99.90;;;;;;4952250;28;20027;-87
2021/12/10 05:06:08;;;;;;;5.43;1.70;;;-0.40;99.90;;;;;;4956435;28;20030;-87
2021/12/10 05:08:35;;;;;;;6.93;1.63;;;-0.50;99.90;;;;;;4954487;28;20038;-87
2021/12/10 05:11:02;;;;;;;7.60;1.80;;;-0.50;99.90;;;;;;4954873;28;20030;-87
2021/12/10 05:13:28;;;;;;;6.00;1.43;;;-0.50;99.90;;;;;;4950607;28;20043;-87
2021/12/10 05:15:58;;;;;;;5.47;1.17;;;-0.40;99.90;;;;;;4951995;28;20443;-88
2021/12/10 05:18:35;;;;;;;6.07;2.00;;;-0.40;99.90;;;;;;4955086;28;20022;-87
2021/12/10 05:21:03;;;;;;;5.20;1.70;;;-0.40;99.90;;;;;;4952697;28;20118;-87
2021/12/10 05:23:28;;;;;;;5.77;1.73;;;0.00;99.90;;;;;;4955160;28;20661;-87
2021/12/10 05:25:54;;;;;;;6.13;2.27;;;-0.40;99.90;;;;;;4954329;28;20076;-86
2021/12/10 05:28:21;;;;;;;5.20;1.93;;;-0.20;99.90;;;;;;4956840;28;20307;-87
2021/12/10 05:30:49;;;;;;;4.97;2.07;;;;;;;;;;4952792;28;20039;-87
2021/12/10 05:33:17;;;;;;;5.10;1.80;;;-0.60;99.90;;;;;;4948571;28;20066;-87
2021/12/10 05:35:46;;;;;;;5.00;1.47;;;-0.90;99.90;;;;;;4952703;28;20023;-87
2021/12/10 05:38:13;;;;;;;4.63;1.57;;;-0.40;99.90;;;;;;4958588;28;20094;-87
2021/12/10 05:40:39;;;;;;;5.03;1.60;;;-0.50;99.90;;;;;;4956343;28;20027;-87
2021/12/10 05:43:05;;;;;;;9.53;1.77;;;-0.10;99.90;;;;;;4957937;28;20027;-87
2021/12/10 05:45:31;;;;;;;5.97;2.27;;;-0.40;99.90;;;;;;4963524;28;20028;-88
2021/12/10 05:47:57;;;;;;;7.50;2.10;;;0.40;99.90;;;;;;4970175;28;20019;-87
2021/12/10 05:50:26;;;;;;;8.07;1.83;;;-0.50;99.90;;;;;;4968379;28;20019;-87
2021/12/10 05:52:53;;;;;;;6.87;2.17;;;-0.60;99.90;;;;;;4966221;28;20015;-87
2021/12/10 05:55:20;;;;;;;5.00;1.77;;;-0.50;99.90;;;;;;4964953;28;20055;-86
2021/12/10 05:57:46;;;;;;;7.30;1.70;;;-0.50;99.90;;;;;;4974253;28;20035;-87
2021/12/10 06:00:16;;;;;;;4.10;1.70;;;-0.50;99.90;;;;;;4977953;28;20103;-88
2021/12/10 06:02:48;;;;;;;5.73;2.03;;;-0.50;99.90;;;;;;4971494;28;20034;-87
2021/12/10 06:05:15;;;;;;;5.38;1.67;;;-0.40;99.90;;;;;;4961356;28;20054;-88
2021/12/10 06:07:41;;;;;;;8.67;1.80;;;-0.40;99.90;;;;;;4969395;28;20094;-87
2021/12/10 06:10:13;;;;;;;6.00;2.27;;;-0.40;99.90;;;;;;4970260;28;20502;-88
2021/12/10 06:12:42;;;;;;;4.97;2.10;;;-0.60;99.90;;;;;;4964791;28;20035;-87
2021/12/10 06:15:08;;;;;;;11.23;1.93;;;-0.50;99.90;;;;;;4972726;28;20103;-86
2021/12/10 06:17:41;;;;;;;4.73;2.17;;;-0.40;99.90;;;;;;4960880;28;20035;-89
2021/12/10 06:20:23;;;;;;;11.47;2.80;;;-0.60;99.90;;;;;;4962530;28;20042;-90
2021/12/10 06:22:55;;;;;;;4.82;1.52;;;0.30;99.90;;;;;;4967405;28;20043;-90
2021/12/10 06:25:38;;;;;;;6.78;2.25;;;0.60;99.90;;;;;;4963332;28;20036;-88
2021/12/10 06:28:27;;;;;;;5.57;2.10;;;-0.20;99.90;;;;;;4961542;28;20031;-89
2021/12/10 06:31:05;;;;;;;4.77;2.10;;;2.20;99.90;;;;;;4979965;28;20786;-90
2021/12/10 06:33:59;;;;;;;9.13;2.60;;;0.90;99.90;;;;;;4972408;28;20113;-88
2021/12/10 06:36:48;;;;;;;6.87;2.03;;;-0.10;99.90;;;;;;4958464;28;20035;-87
2021/12/10 06:47:55;;;;;;;16.10;3.23;;;-0.40;99.90;;;;;;5089607;23;20059;-88
2021/12/10 06:50:33;;;;;;;7.97;2.40;;;-0.60;99.90;;;;;;4981355;28;20099;-88
2021/12/10 06:53:13;;;;;;;5.93;2.03;;;0.40;99.90;;;;;;4997114;28;20037;-89
2021/12/10 06:55:52;;;;;;;;;;;;;;;;;;;;;
2021/12/10 06:58:22;;;;;;;6.73;2.70;;;-0.20;99.90;;;;;;4990877;28;20040;-90
2021/12/10 07:01:01;;;;;;;7.83;2.57;;;-1.60;99.90;;;;;;4989572;28;20486;-89
2021/12/10 07:03:35;;;;;;;5.57;2.33;;;-0.50;99.90;;;;;;4977905;28;20034;-90
2021/12/10 07:06:05;;;;;;;7.33;2.60;;;0.80;99.90;;;;;;4973084;28;20448;-90
2021/12/10 07:11:36;;;;;;;4.67;2.30;;;-0.50;99.90;;;;;;4990277;28;20046;-90
2021/12/10 07:14:31;;;;;;;6.80;2.43;;;0.20;99.90;;;;;;4979607;28;20030;-91
2021/12/10 07:21:01;;;;;;;7.47;2.27;;;0.40;99.90;;;;;;5013596;28;20032;-90
2021/12/10 07:23:53;;;;;;;10.53;2.40;;;-0.50;99.90;;;;;;4970547;28;20051;-89
2021/12/10 07:26:50;;;;;;;7.30;2.43;;;-0.40;99.90;;;;;;4992997;28;20423;-89
2021/12/10 07:33:27;;;;;;;4.80;2.23;;;-0.40;99.90;;;;;;4981939;28;20247;-89
2021/12/10 07:39:30;;;;;;;4.17;1.67;;;0.50;99.90;;;;;;4933032;29;20040;-89
2021/12/10 07:45:51;;;;;;;6.57;2.23;;;-0.10;99.90;;;;;;4984777;28;20038;-89
2021/12/10 07:59:48;;;;;;;2.73;1.20;;;-0.10;99.90;;;;;;4996060;28;20038;-89
2021/12/10 08:03:05;;;;;;;;;;;;;;;;;;;;;
2021/12/10 08:05:41;;;;;;;7.10;1.73;;;0.10;99.90;;;;;;4969641;28;20038;-90
2021/12/10 08:08:37;;;;;;;4.70;1.77;;;0.50;99.90;;;;;;4972244;28;20035;-90
2021/12/10 08:15:22;;;;;;;;;;;;;;;;;;;;;
2021/12/10 08:22:10;;;;;;;4.87;1.57;;;0.70;99.90;;;;;;4992260;28;20061;-91
2021/12/10 08:24:41;;;;;;;6.13;2.10;;;0.10;99.90;;;;;;4899753;28;20051;-90
2021/12/10 08:34:31;;;;;;;4.03;1.60;;;0.50;99.90;;;;;;5001375;28;20057;-90
2021/12/10 08:37:15;;;;;;;5.03;1.40;;;0.20;99.90;;;;;;4979656;28;20036;-90
2021/12/10 08:43:24;;;;;;;;;;;;;;;;;;;;;
2021/12/10 08:57:16;;;;;;;;;;;;;;;;;;;;;
2021/12/10 09:00:28;;;;;;;4.43;1.73;;;1.00;99.90;;;;;;4863456;29;20060;-92
2021/12/10 09:03:27;;;;;;;10.38;2.58;;;0.60;99.90;;;;;;4882762;29;20043;-93
2021/12/10 09:07:07;;;;;;;;;;;;;;;;;;;;;
2021/12/10 09:09:32;;;;;;;14.50;2.67;;;0.10;99.90;;;;;;4877580;28;20048;-91
2021/12/10 09:12:18;;;;;;;5.93;2.07;;;1.00;99.90;;;;;;4974628;28;20041;-91
2021/12/10 09:15:19;;;;;;;10.53;1.70;;;0.70;99.90;;;;;;4965547;28;20129;-91
2021/12/10 09:17:50;;;;;;;4.93;1.70;;;0.40;99.90;;;;;;4978364;28;20501;-91
2021/12/10 09:20:52;;;;;;;7.23;1.90;;;1.40;99.90;;;;;;4978857;28;20030;-91
2021/12/10 09:30:20;;;;;;;3.70;1.17;;;0.80;99.90;;;;;;5015724;28;20025;-91
2021/12/10 09:36:16;;;;;;;6.00;1.67;;;1.10;99.90;;;;;;4992090;28;20030;-91
2021/12/10 09:38:56;;;;;;;4.03;1.40;;;1.20;99.90;;;;;;4958281;28;20129;-91
2021/12/10 09:42:35;;;;;;;5.77;1.50;;;1.70;99.90;;;;;;4994452;28;20050;-91
2021/12/10 09:49:46;;;;;;;;;;;;;;;;;;;;;
2021/12/10 09:52:57;;;;;;;3.93;1.13;;;1.20;99.90;;;;;;4934875;29;20043;-90
2021/12/10 09:55:45;;;;;;;3.83;1.37;;;1.70;99.90;;;;;;4927036;28;20397;-90
2021/12/10 09:58:12;;;;;;;5.10;1.33;;;1.50;99.90;;;;;;4957246;28;20041;-90
2021/12/10 10:00:47;;;;;;;4.17;1.63;;;0.70;99.90;;;;;;4991161;28;20042;-90
2021/12/10 10:03:18;;;;;;;5.37;1.47;;;1.20;99.90;;;;;;4960195;28;20031;-90
2021/12/10 10:05:45;;;;;;;3.13;0.90;;;1.00;99.90;;;;;;4962337;28;20109;-90
2021/12/10 10:08:27;;;;;;;2.50;1.30;;;1.80;99.90;;;;;;4972517;28;20413;-90
2021/12/10 10:11:05;;;;;;;2.28;0.80;;;1.70;99.90;;;;;;4983844;28;20113;-92
2021/12/10 10:13:46;;;;;;;3.57;1.10;;;1.70;99.90;;;;;;4995286;28;20037;-91
2021/12/10 10:16:21;;;;;;;3.17;1.20;;;1.10;99.90;;;;;;4981696;28;20029;-90
2021/12/10 10:18:53;;;;;;;2.27;1.13;;;2.40;99.90;;;;;;4978406;28;20030;-90
2021/12/10 10:21:35;;;;;;;3.35;0.95;;;2.40;99.90;;;;;;4983483;28;20498;-91
2021/12/10 10:24:13;;;;;;;2.97;0.90;;;1.70;99.90;;;;;;4977304;28;20038;-91
2021/12/10 10:26:45;;;;;;;4.83;1.00;;;1.60;99.90;;;;;;4977903;28;20026;-90
2021/12/10 10:29:20;;;;;;;2.77;0.80;;;1.70;99.90;;;;;;4976154;28;20124;-88
2021/12/10 10:31:56;;;;;;;2.57;0.63;;;2.50;99.90;;;;;;4985479;28;20018;-89
2021/12/10 10:34:26;;;;;;;2.80;0.93;;;1.90;99.90;;;;;;4979995;28;20504;-89
2021/12/10 10:36:54;;;;;;;3.07;0.60;;;1.90;99.90;;;;;;4988638;28;20040;-89
2021/12/10 10:39:32;;;;;;;1.97;0.53;;;1.90;99.90;;;;;;4971101;28;20069;-89
2021/12/10 10:41:58;;;;;;;1.03;0.40;;;1.90;99.90;;;;;;4976743;28;20125;-88
2021/12/10 10:44:25;;;;;;;1.57;0.50;;;2.00;99.90;;;;;;4977653;28;20046;-89
2021/12/10 10:46:56;;;;;;;3.33;0.63;;;2.10;99.90;;;;;;5003200;28;20026;-89
2021/12/10 10:49:37;;;;;;;1.10;0.33;;;2.80;99.90;;;;;;4957800;28;20107;-89
2021/12/10 10:52:22;;;;;;;2.67;0.60;;;2.10;99.90;;;;;;4974912;28;20378;-88
2021/12/10 10:54:53;;;;;;;2.10;0.50;;;2.20;99.90;;;;;;4957730;28;20022;-88
2021/12/10 10:57:25;;;;;;;2.27;0.40;;;3.00;99.90;;;;;;4957996;28;20030;-89
2021/12/10 10:59:58;;;;;;;1.00;0.40;;;2.80;99.90;;;;;;4964823;28;20026;-90
2021/12/10 11:02:48;;;;;;;1.87;0.60;;;2.30;99.90;;;;;;4977156;28;20038;-88
2021/12/10 11:05:24;;;;;;;1.70;0.47;;;2.80;99.90;;;;;;4989477;28;20027;-88
2021/12/10 11:08:06;;;;;;;2.33;0.70;;;2.20;99.90;;;;;;4975064;28;20026;-89
2021/12/10 11:10:37;;;;;;;1.83;0.50;;;2.30;99.90;;;;;;4972060;28;20068;-87
2021/12/10 11:13:21;;;;;;;0.70;0.23;;;2.30;99.90;;;;;;4994908;28;20026;-87
2021/12/10 11:16:00;;;;;;;0.97;0.33;;;2.40;99.90;;;;;;4957073;28;20278;-87
2021/12/10 11:18:27;;;;;;;4.80;0.40;;;2.30;99.90;;;;;;4997229;28;20029;-88
2021/12/10 11:20:54;;;;;;;1.77;0.53;;;2.50;99.90;;;;;;4983745;28;20443;-87
2021/12/10 11:23:25;;;;;;;1.30;0.30;;;2.30;99.90;;;;;;4982253;28;20123;-88
2021/12/10 11:25:56;;;;;;;1.00;0.20;;;2.30;99.90;;;;;;4976356;28;20348;-87
2021/12/10 11:28:30;;;;;;;2.07;0.40;;;1.70;99.90;;;;;;4976077;28;20560;-87
2021/12/10 11:31:25;;;;;;;4.37;0.57;;;2.30;99.90;;;;;;4976279;28;20030;-87
2021/12/10 11:33:57;;;;;;;0.57;0.20;;;2.40;99.90;;;;;;4971271;28;20494;-87
2021/12/10 11:36:26;;;;;;;2.60;0.20;;;2.60;99.90;;;;;;4975706;28;20038;-87
2021/12/10 11:38:56;;;;;;;1.67;0.40;;;3.20;99.90;;;;;;4975996;28;20034;-87
2021/12/10 11:41:28;;;;;;;0.47;0.20;;;2.00;99.90;;;;;;4992556;28;20042;-87
2021/12/10 11:44:07;;;;;;;0.55;0.10;;;2.30;99.90;;;;;;4971687;28;20073;-89
2021/12/10 11:47:02;;;;;;;0.60;0.13;;;2.20;99.90;;;;;;4975774;28;20038;-87
2021/12/10 11:49:40;;;;;;;3.20;0.20;;;2.20;99.90;;;;;;4971959;28;20027;-88
2021/12/10 11:52:21;;;;;;;1.63;0.27;;;2.70;99.90;;;;;;4974146;28;20494;-87
2021/12/10 11:54:56;;;;;;;1.30;0.33;;;2.00;99.90;;;;;;4993957;28;20022;-87
2021/12/10 11:57:35;;;;;;;1.23;0.30;;;1.80;99.90;;;;;;4991787;28;20026;-88
2021/12/10 12:00:17;;;;;;;2.53;0.37;;;1.60;99.90;;;;;;4981765;28;20065;-89
2021/12/10 12:02:48;;;;;;;1.30;0.40;;;1.50;99.90;;;;;;4977546;28;20039;-89
2021/12/10 12:05:19;;;;;;;1.73;0.40;;;1.40;99.90;;;;;;4977604;28;20092;-88
2021/12/10 12:07:46;;;;;;;2.47;0.50;;;1.30;99.90;;;;;;4979640;28;20038;-89
2021/12/10 12:10:25;;;;;;;1.27;0.40;;;1.20;99.90;;;;;;4974608;28;20034;-90
2021/12/10 12:13:41;;;;;;;0.37;0.23;;;1.20;99.90;;;;;;4967842;28;20042;-90
2021/12/10 12:16:24;;;;;;;1.33;0.30;;;1.20;99.90;;;;;;4960351;28;20487;-91
2021/12/10 12:19:01;;;;;;;1.80;0.53;;;1.20;99.90;;;;;;4997816;28;20061;-90
2021/12/10 12:27:18;;;;;;;2.53;0.53;;;1.10;99.90;;;;;;4990421;28;19916;-91
2021/12/10 12:30:25;;;;;;;1.80;0.50;;;1.80;99.90;;;;;;4982693;28;20041;-90
2021/12/10 12:32:59;;;;;;;3.23;0.50;;;1.20;99.90;;;;;;4997074;28;20014;-91
2021/12/10 12:35:52;;;;;;;0.93;0.40;;;1.10;99.90;;;;;;4978469;28;20037;-91
2021/12/10 12:38:51;;;;;;;1.17;0.40;;;1.10;99.90;;;;;;4971546;28;20505;-90
2021/12/10 12:41:46;;;;;;;3.23;0.60;;;1.10;99.90;;;;;;4980411;28;20048;-91
2021/12/10 12:44:26;;;;;;;1.13;0.37;;;1.10;99.90;;;;;;4977266;28;20037;-91
2021/12/10 12:46:59;;;;;;;2.27;0.50;;;1.10;99.90;;;;;;4974450;28;20018;-87
2021/12/10 12:49:26;;;;;;;2.10;0.70;;;1.20;99.90;;;;;;4983480;28;20104;-87
2021/12/10 12:52:16;;;;;;;1.07;0.50;;;1.10;99.90;;;;;;4976304;28;20434;-87
2021/12/10 12:55:20;;;;;;;2.83;0.77;;;1.10;99.90;;;;;;4988172;28;20185;-88
2021/12/10 12:58:01;;;;;;;0.83;0.40;;;1.10;99.90;;;;;;5013847;28;20026;-87
2021/12/10 13:00:35;;;;;;;2.37;0.67;;;1.10;99.90;;;;;;5006474;28;20031;-87
2021/12/10 13:03:07;;;;;;;1.27;0.40;;;1.10;99.90;;;;;;4979028;28;20031;-87
2021/12/10 13:05:47;;;;;;;1.88;0.40;;;1.20;99.90;;;;;;4992084;28;20512;-87
2021/12/10 13:08:17;;;;;;;1.40;0.50;;;1.10;99.90;;;;;;4974888;28;20050;-87
2021/12/10 13:10:49;;;;;;;3.07;0.57;;;2.00;99.90;;;;;;4958865;28;20030;-87
2021/12/10 13:13:25;;;;;;;3.60;0.60;;;1.90;99.90;;;;;;4974662;28;20088;-88
2021/12/10 13:15:52;;;;;;;1.03;0.50;;;1.80;99.90;;;;;;4971849;28;20118;-87
2021/12/10 13:18:21;;;;;;;1.70;0.40;;;0.90;99.90;;;;;;4999664;28;20030;-87
2021/12/10 13:20:53;;;;;;;3.27;0.50;;;1.10;99.90;;;;;;4980999;28;20101;-88
2021/12/10 13:23:30;;;;;;;1.98;0.60;;;1.10;99.90;;;;;;4987487;28;20048;-88
2021/12/10 13:26:11;;;;;;;1.70;0.50;;;1.30;99.90;;;;;;4997813;28;20453;-88
2021/12/10 13:28:38;;;;;;;2.60;0.70;;;1.60;99.90;;;;;;4977123;28;20192;-88
2021/12/10 13:31:18;;;;;;;2.90;0.80;;;1.30;99.90;;;;;;4977292;28;20027;-88
2021/12/10 13:33:52;;;;;;;2.73;0.87;;;1.70;99.90;;;;;;4976072;28;20034;-88
2021/12/10 13:36:22;;;;;;;2.87;0.80;;;1.40;99.90;;;;;;4989274;28;20022;-87
2021/12/10 13:38:53;;;;;;;1.40;0.63;;;2.30;99.90;;;;;;4998753;28;20025;-88
2021/12/10 13:41:22;;;;;;;1.93;0.60;;;1.50;99.90;;;;;;4992381;28;20055;-88
2021/12/10 13:43:54;;;;;;;3.50;0.80;;;2.10;99.90;;;;;;4977521;28;20026;-88
2021/12/10 13:46:28;;;;;;;3.00;0.80;;;1.50;99.90;;;;;;4977354;28;20057;-88
2021/12/10 13:48:58;;;;;;;3.53;0.97;;;1.70;99.90;;;;;;4977222;28;20054;-88
2021/12/10 14:02:19;;;;;;;4.23;1.00;;;1.40;99.90;;;;;;4992806;28;20559;-90
2021/12/10 14:08:37;;;;;;;3.13;0.90;;;1.70;99.90;;;;;;4899272;29;20116;-89
2021/12/10 14:18:48;;;;;;;;;;;;;;;;;;;;;
2021/12/10 14:22:42;;;;;;;3.17;0.90;;;1.40;99.90;;;;;;4952195;29;20054;-90
2021/12/10 14:40:28;;;;;;;;;;;;;;;;;;;;;
2021/12/10 14:43:21;;;;;;;;;;;1.60;99.90;;;;;;4934982;29;20461;-89
2021/12/10 14:50:06;;;;;;;2.57;1.00;;;1.50;99.90;;;;;;4934650;29;20126;-90
2021/12/10 15:00:24;;;;;;;;;;;;;;;;;;;;;
2021/12/10 15:43:13;;;;;;;;;;;;;;;;;;;;;
2021/12/10 15:52:20;;;;;;;2.30;0.40;;;1.90;99.90;;;;;;4954098;29;20039;-89
2021/12/10 15:59:45;;;;;;;;;;;;;;;;;;;;;
2021/12/10 16:06:23;;;;;;;1.23;0.50;;;2.00;99.90;;;;;;4951083;29;20035;-89
2021/12/10 16:09:30;;;;;;;;;;;;;;;;;;;;;
2021/12/10 16:19:20;;;;;;;1.93;0.40;;;1.70;99.90;;;;;;4886103;29;20100;-88
2021/12/10 16:21:50;;;;;;;1.67;0.77;;;2.00;99.90;;;;;;4894016;29;20077;-88
2021/12/10 16:24:35;;;;;;;1.77;0.50;;;2.10;99.90;;;;;;4940447;29;20050;-89
2021/12/10 16:27:07;;;;;;;1.67;0.50;;;2.20;99.90;;;;;;4938370;28;20091;-88
2021/12/10 16:29:53;;;;;;;1.50;0.50;;;2.00;99.90;;;;;;4933175;29;20023;-87
2021/12/10 16:32:26;;;;;;;1.43;0.63;;;2.10;99.90;;;;;;4937761;28;20054;-90
2021/12/10 16:35:24;;;;;;;2.43;0.93;;;2.30;99.90;;;;;;4938863;29;20027;-88
2021/12/10 16:37:52;;;;;;;2.20;0.80;;;2.20;99.90;;;;;;4948370;29;20106;-89
2021/12/10 16:40:28;;;;;;;2.37;0.70;;;2.20;99.90;;;;;;4954729;29;20030;-86
2021/12/10 16:43:02;;;;;;;2.40;0.50;;;2.20;99.90;;;;;;4951646;28;20039;-87
2021/12/10 16:45:29;;;;;;;1.33;0.50;;;2.20;99.90;;;;;;4936653;29;20039;-86
2021/12/10 16:47:55;;;;;;;2.83;0.90;;;2.20;99.90;;;;;;4954266;29;20023;-86
2021/12/10 16:50:25;;;;;;;1.53;0.70;;;2.20;99.90;;;;;;4952636;29;20078;-86
2021/12/10 16:52:52;;;;;;;1.33;0.63;;;2.30;99.90;;;;;;4937728;28;20031;-87
2021/12/10 16:55:25;;;;;;;1.70;0.70;;;2.30;99.90;;;;;;4938578;29;20049;-85
2021/12/10 16:57:55;;;;;;;1.43;0.70;;;2.30;99.90;;;;;;4949284;29;20042;-86
2021/12/10 17:00:30;;;;;;;1.20;0.60;;;2.30;99.90;;;;;;4950550;29;20023;-87
2021/12/10 17:02:57;;;;;;;2.80;1.00;;;2.30;99.90;;;;;;4941411;29;20723;-86
2021/12/10 17:05:29;;;;;;;1.47;0.60;;;2.30;99.90;;;;;;4946507;28;20043;-87
2021/12/10 17:07:59;;;;;;;3.00;0.88;;;2.30;99.90;;;;;;4952314;29;20027;-89
2021/12/10 17:10:38;;;;;;;2.33;0.80;;;2.30;99.90;;;;;;4953755;29;20031;-88
2021/12/10 17:13:31;;;;;;;1.60;0.80;;;2.20;99.90;;;;;;4932173;29;20387;-88
2021/12/10 17:16:03;;;;;;;2.47;0.70;;;2.40;99.90;;;;;;4935073;29;20050;-86
2021/12/10 17:18:32;;;;;;;2.95;0.80;;;2.20;99.90;;;;;;4952147;28;20075;-87
2021/12/10 17:21:08;;;;;;;2.60;0.80;;;2.20;99.90;;;;;;5017080;23;20046;-87